Hlavní strana
METAR-TAF:

METAR-TAF

Letiště :

Fairfield County Airport

Lancaster, Ohio, Spojené státy americké

zeměpisná šířka: 39-45-26N, zeměpisná délka: 082-39-48W, výška: 264 m

Aktuální stav počasí

Zpráva byla vytvořena před 13 minutami, v 10:53 UTC
Západní vítr 12 kt s nárazy do 21 kt
Teplota 5°C
Vlhkost vzduchu 81%
Tlak 1011 hPa
Viditelnost: 16.1 km
Polojasno ve výšce 1800 ft
Zataženo ve výšce 4300 ft

METAR: KLHQ 101053Z AUTO 28012G21KT 10SM SCT018 OVC043 05/02 A2985 RMK AO2 SLP110 T00500017

Čas: 06:06 (11:06 UTC)


TAF: chybějící

Stav a předpovědi počasí z více než 4 000 letišť (zprávy METAR a TAF).

Červené a žluté tečky na mapě představují dostupné meteorologické stanice.

Když kurzor umístíte na tečku, zobrazí se název stanice.

Pak kliknutím zobrazíte stav a předpověď počasí.

Chcete-li změnit mapu, kliknutím na zelené tlačítko se znaménkem +mapu přiblížíte, kliknutím na zelené tlačítko se znaménkem – mapu oddálíte a kliknutím na zelené šipky přejdete na sousední mapy.


METAR-TAF: